Accueil
METAR-TAF:

METAR-TAF

Aéroports :

Aéroport Santos-Dumont

Rio de Janeiro, Rio de Janeiro, Brésil

latitude: 22-54S, longitude: 043-10W, altitude: 3 m

Observation

Le bulletin a été fait il y a 1 heure et 14 minutes, à 14:00 UTC
Vent 4 kt de sud-est
Température 27°C
Humidité 70%
Pression 1015 hPa
Visibilité 10 km ou plus
Quelques nuages à une hauteur de 2000 ft

METAR: SBRJ 201400Z 13004KT 9999 FEW020 27/21 Q1015

Heure: 12:14 (15:14 UTC)

Prévision

Le bulletin a été fait il y a 5 heures et 59 minutes, à 09:15 UTC
Prévision valable du 20 à 12 UTC au 20 à 24 UTC
Vent 5 kt de est/nord-est
Visibilité 10 km ou plus
Nuages épars à une hauteur de 2700 ft
Evoluant progressivement
du 20 à 12 UTC au 20 à 14 UTC
Vent 8 kt de sud-est
Evoluant progressivement
du 20 à 18 UTC au 20 à 20 UTC
Vent 10 kt de sud/sud-est

TAF: SBRJ 200915Z 2012/2024 06005KT 9999 SCT027 TX26/2017Z TN22/2024Z BECMG 2012/2014 14008KT BECMG 2018/2020 16010KT RMK PGW

Observations et prévisions météorologiques de plus de 4000 aéroports (messages METAR et TAF).

Les stations disponibles sont représentées par des disques jaunes et rouges sur la carte.

Passer la souris dessus pour voir le nom de la station.

Cliquer dessus pour voir les observations et prévisions météorologiques.

Pour changer de carte: cliquez sur les boutons verts avec une croix noire pour zoomer, sur le bouton vert avec un tiret pour effectuer un zoom arrière, ou sur les flèches vertes pour les cartes adjacentes.


METAR-TAF: